sensor_id;sensor_type;location;lat;lon;timestamp;P1;durP1;ratioP1;P2;durP2;ratioP2
44456;SDS011;30159;49.316;8.558;2024-02-16T00:01:06;3.43;;;1.53;;
44456;SDS011;30159;49.316;8.558;2024-02-16T00:03:32;3.87;;;1.90;;
44456;SDS011;30159;49.316;8.558;2024-02-16T00:05:59;2.03;;;1.60;;
44456;SDS011;30159;49.316;8.558;2024-02-16T00:08:26;1.83;;;1.70;;
44456;SDS011;30159;49.316;8.558;2024-02-16T00:10:54;2.00;;;1.70;;
44456;SDS011;30159;49.316;8.558;2024-02-16T00:13:21;1.60;;;1.50;;
44456;SDS011;30159;49.316;8.558;2024-02-16T00:15:47;1.87;;;1.77;;
44456;SDS011;30159;49.316;8.558;2024-02-16T00:18:14;3.23;;;1.80;;
44456;SDS011;30159;49.316;8.558;2024-02-16T00:20:41;1.97;;;1.40;;
44456;SDS011;30159;49.316;8.558;2024-02-16T00:23:07;1.70;;;1.60;;
44456;SDS011;30159;49.316;8.558;2024-02-16T00:25:34;1.97;;;1.83;;
44456;SDS011;30159;49.316;8.558;2024-02-16T00:28:03;2.03;;;1.73;;
44456;SDS011;30159;49.316;8.558;2024-02-16T00:30:30;1.60;;;1.50;;
44456;SDS011;30159;49.316;8.558;2024-02-16T00:32:57;2.03;;;1.83;;
44456;SDS011;30159;49.316;8.558;2024-02-16T00:35:23;3.27;;;2.10;;
44456;SDS011;30159;49.316;8.558;2024-02-16T00:37:50;3.27;;;1.70;;
44456;SDS011;30159;49.316;8.558;2024-02-16T00:40:17;2.73;;;1.80;;
44456;SDS011;30159;49.316;8.558;2024-02-16T00:42:44;2.80;;;2.20;;
44456;SDS011;30159;49.316;8.558;2024-02-16T00:45:12;1.93;;;1.73;;
44456;SDS011;30159;49.316;8.558;2024-02-16T00:47:39;2.17;;;1.97;;
44456;SDS011;30159;49.316;8.558;2024-02-16T00:50:06;1.70;;;1.60;;
44456;SDS011;30159;49.316;8.558;2024-02-16T00:52:34;1.87;;;1.60;;
44456;SDS011;30159;49.316;8.558;2024-02-16T00:55:00;1.60;;;1.50;;
44456;SDS011;30159;49.316;8.558;2024-02-16T00:57:29;2.40;;;2.20;;
44456;SDS011;30159;49.316;8.558;2024-02-16T00:59:55;1.60;;;1.50;;
44456;SDS011;30159;49.316;8.558;2024-02-16T01:02:23;3.60;;;1.73;;
44456;SDS011;30159;49.316;8.558;2024-02-16T01:04:50;2.73;;;1.80;;
44456;SDS011;30159;49.316;8.558;2024-02-16T01:07:18;1.80;;;1.70;;
44456;SDS011;30159;49.316;8.558;2024-02-16T01:09:44;2.00;;;1.53;;
44456;SDS011;30159;49.316;8.558;2024-02-16T01:12:11;2.33;;;2.13;;
44456;SDS011;30159;49.316;8.558;2024-02-16T01:14:38;1.60;;;1.50;;
44456;SDS011;30159;49.316;8.558;2024-02-16T01:17:04;1.63;;;1.53;;
44456;SDS011;30159;49.316;8.558;2024-02-16T01:19:32;1.73;;;1.63;;
44456;SDS011;30159;49.316;8.558;2024-02-16T01:21:59;1.80;;;1.70;;
44456;SDS011;30159;49.316;8.558;2024-02-16T01:24:26;1.53;;;1.43;;
44456;SDS011;30159;49.316;8.558;2024-02-16T01:26:52;2.70;;;1.60;;
44456;SDS011;30159;49.316;8.558;2024-02-16T01:29:19;1.57;;;1.47;;
44456;SDS011;30159;49.316;8.558;2024-02-16T01:31:46;1.70;;;1.60;;
44456;SDS011;30159;49.316;8.558;2024-02-16T01:34:12;1.50;;;1.40;;
44456;SDS011;30159;49.316;8.558;2024-02-16T01:36:40;2.07;;;1.87;;
44456;SDS011;30159;49.316;8.558;2024-02-16T01:39:07;1.70;;;1.60;;
44456;SDS011;30159;49.316;8.558;2024-02-16T01:41:33;1.50;;;1.40;;
44456;SDS011;30159;49.316;8.558;2024-02-16T01:44:04;2.60;;;1.37;;
44456;SDS011;30159;49.316;8.558;2024-02-16T01:46:30;2.30;;;2.10;;
44456;SDS011;30159;49.316;8.558;2024-02-16T01:48:57;2.70;;;2.37;;
44456;SDS011;30159;49.316;8.558;2024-02-16T01:51:24;2.43;;;1.50;;
44456;SDS011;30159;49.316;8.558;2024-02-16T01:53:53;2.90;;;2.03;;
44456;SDS011;30159;49.316;8.558;2024-02-16T01:56:21;1.60;;;1.43;;
44456;SDS011;30159;49.316;8.558;2024-02-16T01:58:48;1.70;;;1.60;;
44456;SDS011;30159;49.316;8.558;2024-02-16T02:01:15;2.10;;;1.90;;
44456;SDS011;30159;49.316;8.558;2024-02-16T02:03:41;2.67;;;2.20;;
44456;SDS011;30159;49.316;8.558;2024-02-16T02:06:08;2.37;;;2.10;;
44456;SDS011;30159;49.316;8.558;2024-02-16T02:08:34;1.57;;;1.47;;
44456;SDS011;30159;49.316;8.558;2024-02-16T02:11:03;4.50;;;1.80;;
44456;SDS011;30159;49.316;8.558;2024-02-16T02:13:30;1.63;;;1.53;;
44456;SDS011;30159;49.316;8.558;2024-02-16T02:15:57;2.50;;;1.67;;
44456;SDS011;30159;49.316;8.558;2024-02-16T02:18:24;2.00;;;1.90;;
44456;SDS011;30159;49.316;8.558;2024-02-16T02:20:51;2.93;;;1.50;;
44456;SDS011;30159;49.316;8.558;2024-02-16T02:23:20;1.50;;;1.30;;
44456;SDS011;30159;49.316;8.558;2024-02-16T02:25:46;1.83;;;1.73;;
44456;SDS011;30159;49.316;8.558;2024-02-16T02:28:14;1.67;;;1.57;;
44456;SDS011;30159;49.316;8.558;2024-02-16T02:30:41;1.90;;;1.80;;
44456;SDS011;30159;49.316;8.558;2024-02-16T02:33:10;1.87;;;1.77;;
44456;SDS011;30159;49.316;8.558;2024-02-16T02:35:38;2.70;;;1.70;;
44456;SDS011;30159;49.316;8.558;2024-02-16T02:38:04;2.70;;;1.90;;
44456;SDS011;30159;49.316;8.558;2024-02-16T02:40:33;2.57;;;1.57;;
44456;SDS011;30159;49.316;8.558;2024-02-16T02:43:00;3.30;;;1.60;;
44456;SDS011;30159;49.316;8.558;2024-02-16T02:45:26;2.87;;;1.83;;
44456;SDS011;30159;49.316;8.558;2024-02-16T02:47:53;4.03;;;2.07;;
44456;SDS011;30159;49.316;8.558;2024-02-16T02:50:20;2.17;;;1.83;;
44456;SDS011;30159;49.316;8.558;2024-02-16T02:52:46;2.73;;;2.10;;
44456;SDS011;30159;49.316;8.558;2024-02-16T02:55:13;2.33;;;1.90;;
44456;SDS011;30159;49.316;8.558;2024-02-16T02:57:41;2.13;;;1.50;;
44456;SDS011;30159;49.316;8.558;2024-02-16T03:00:08;2.07;;;1.87;;
44456;SDS011;30159;49.316;8.558;2024-02-16T03:02:36;1.60;;;1.50;;
44456;SDS011;30159;49.316;8.558;2024-02-16T03:05:04;2.90;;;2.43;;
44456;SDS011;30159;49.316;8.558;2024-02-16T03:07:32;2.53;;;2.10;;
44456;SDS011;30159;49.316;8.558;2024-02-16T03:09:58;2.83;;;1.80;;
44456;SDS011;30159;49.316;8.558;2024-02-16T03:12:25;2.63;;;2.43;;
44456;SDS011;30159;49.316;8.558;2024-02-16T03:14:54;3.77;;;1.73;;
44456;SDS011;30159;49.316;8.558;2024-02-16T03:17:20;2.23;;;1.63;;
44456;SDS011;30159;49.316;8.558;2024-02-16T03:19:47;2.57;;;1.67;;
44456;SDS011;30159;49.316;8.558;2024-02-16T03:22:14;2.03;;;1.60;;
44456;SDS011;30159;49.316;8.558;2024-02-16T03:24:40;3.60;;;1.70;;
44456;SDS011;30159;49.316;8.558;2024-02-16T03:27:07;2.10;;;1.60;;
44456;SDS011;30159;49.316;8.558;2024-02-16T03:29:33;2.23;;;2.00;;
44456;SDS011;30159;49.316;8.558;2024-02-16T03:32:01;2.93;;;2.20;;
44456;SDS011;30159;49.316;8.558;2024-02-16T03:34:28;1.60;;;1.50;;
44456;SDS011;30159;49.316;8.558;2024-02-16T03:36:56;1.93;;;1.80;;
44456;SDS011;30159;49.316;8.558;2024-02-16T03:39:23;2.33;;;1.80;;
44456;SDS011;30159;49.316;8.558;2024-02-16T03:41:50;1.60;;;1.50;;
44456;SDS011;30159;49.316;8.558;2024-02-16T03:44:17;2.67;;;2.03;;
44456;SDS011;30159;49.316;8.558;2024-02-16T03:46:43;2.00;;;1.60;;
44456;SDS011;30159;49.316;8.558;2024-02-16T03:49:11;2.03;;;1.83;;
44456;SDS011;30159;49.316;8.558;2024-02-16T03:51:38;2.23;;;2.03;;
44456;SDS011;30159;49.316;8.558;2024-02-16T03:54:04;2.17;;;1.97;;
44456;SDS011;30159;49.316;8.558;2024-02-16T03:56:31;1.73;;;1.63;;
44456;SDS011;30159;49.316;8.558;2024-02-16T03:58:57;2.23;;;2.13;;
44456;SDS011;30159;49.316;8.558;2024-02-16T04:01:24;2.47;;;2.10;;
44456;SDS011;30159;49.316;8.558;2024-02-16T04:03:51;1.97;;;1.87;;
44456;SDS011;30159;49.316;8.558;2024-02-16T04:06:19;2.50;;;2.30;;
44456;SDS011;30159;49.316;8.558;2024-02-16T04:08:46;2.23;;;2.03;;
44456;SDS011;30159;49.316;8.558;2024-02-16T04:11:13;2.30;;;1.83;;
44456;SDS011;30159;49.316;8.558;2024-02-16T04:13:41;2.30;;;1.90;;
44456;SDS011;30159;49.316;8.558;2024-02-16T04:16:07;2.40;;;2.20;;
44456;SDS011;30159;49.316;8.558;2024-02-16T04:18:34;2.70;;;2.50;;
44456;SDS011;30159;49.316;8.558;2024-02-16T04:21:01;2.40;;;2.20;;
44456;SDS011;30159;49.316;8.558;2024-02-16T04:23:29;2.20;;;2.00;;
44456;SDS011;30159;49.316;8.558;2024-02-16T04:25:55;1.80;;;1.70;;
44456;SDS011;30159;49.316;8.558;2024-02-16T04:28:22;2.40;;;2.20;;
44456;SDS011;30159;49.316;8.558;2024-02-16T04:30:49;2.57;;;2.37;;
44456;SDS011;30159;49.316;8.558;2024-02-16T04:33:16;2.77;;;2.57;;
44456;SDS011;30159;49.316;8.558;2024-02-16T04:35:43;2.33;;;2.13;;
44456;SDS011;30159;49.316;8.558;2024-02-16T04:38:11;4.60;;;2.63;;
44456;SDS011;30159;49.316;8.558;2024-02-16T04:40:40;4.60;;;2.77;;
44456;SDS011;30159;49.316;8.558;2024-02-16T04:43:07;2.50;;;2.30;;
44456;SDS011;30159;49.316;8.558;2024-02-16T04:45:33;4.70;;;3.23;;
44456;SDS011;30159;49.316;8.558;2024-02-16T04:48:04;2.70;;;2.40;;
44456;SDS011;30159;49.316;8.558;2024-02-16T04:50:31;2.53;;;2.33;;
44456;SDS011;30159;49.316;8.558;2024-02-16T04:52:58;3.23;;;2.63;;
44456;SDS011;30159;49.316;8.558;2024-02-16T04:55:26;3.40;;;2.87;;
44456;SDS011;30159;49.316;8.558;2024-02-16T04:57:54;2.43;;;1.60;;
44456;SDS011;30159;49.316;8.558;2024-02-16T05:00:21;2.37;;;2.17;;
44456;SDS011;30159;49.316;8.558;2024-02-16T05:02:48;2.30;;;2.07;;
44456;SDS011;30159;49.316;8.558;2024-02-16T05:05:14;2.80;;;2.23;;
44456;SDS011;30159;49.316;8.558;2024-02-16T05:07:41;3.53;;;2.30;;
44456;SDS011;30159;49.316;8.558;2024-02-16T05:10:08;8.60;;;2.00;;
44456;SDS011;30159;49.316;8.558;2024-02-16T05:12:36;7.17;;;2.20;;
44456;SDS011;30159;49.316;8.558;2024-02-16T05:15:04;2.10;;;1.60;;
44456;SDS011;30159;49.316;8.558;2024-02-16T05:17:31;2.23;;;1.80;;
44456;SDS011;30159;49.316;8.558;2024-02-16T05:19:57;2.57;;;1.80;;
44456;SDS011;30159;49.316;8.558;2024-02-16T05:22:24;1.77;;;1.67;;
44456;SDS011;30159;49.316;8.558;2024-02-16T05:24:50;6.73;;;2.07;;
44456;SDS011;30159;49.316;8.558;2024-02-16T05:27:17;2.07;;;1.87;;
44456;SDS011;30159;49.316;8.558;2024-02-16T05:29:44;2.07;;;1.87;;
44456;SDS011;30159;49.316;8.558;2024-02-16T05:32:12;1.60;;;1.50;;
44456;SDS011;30159;49.316;8.558;2024-02-16T05:34:39;2.77;;;2.53;;
44456;SDS011;30159;49.316;8.558;2024-02-16T05:37:06;1.77;;;1.47;;
44456;SDS011;30159;49.316;8.558;2024-02-16T05:39:35;2.90;;;2.13;;
44456;SDS011;30159;49.316;8.558;2024-02-16T05:42:18;2.57;;;2.37;;
44456;SDS011;30159;49.316;8.558;2024-02-16T05:44:45;1.77;;;1.67;;
44456;SDS011;30159;49.316;8.558;2024-02-16T05:47:13;2.20;;;2.00;;
44456;SDS011;30159;49.316;8.558;2024-02-16T05:49:40;2.17;;;1.90;;
44456;SDS011;30159;49.316;8.558;2024-02-16T05:52:06;2.10;;;1.67;;
44456;SDS011;30159;49.316;8.558;2024-02-16T05:54:45;2.27;;;2.07;;
44456;SDS011;30159;49.316;8.558;2024-02-16T05:57:13;2.53;;;2.33;;
44456;SDS011;30159;49.316;8.558;2024-02-16T05:59:40;2.67;;;2.00;;
44456;SDS011;30159;49.316;8.558;2024-02-16T06:02:07;2.23;;;2.00;;
44456;SDS011;30159;49.316;8.558;2024-02-16T06:04:38;2.20;;;2.00;;
44456;SDS011;30159;49.316;8.558;2024-02-16T06:07:05;1.90;;;1.73;;
44456;SDS011;30159;49.316;8.558;2024-02-16T06:09:31;3.13;;;2.20;;
44456;SDS011;30159;49.316;8.558;2024-02-16T06:12:00;2.40;;;1.80;;
44456;SDS011;30159;49.316;8.558;2024-02-16T06:14:29;2.20;;;2.00;;
44456;SDS011;30159;49.316;8.558;2024-02-16T06:16:56;2.23;;;2.13;;
44456;SDS011;30159;49.316;8.558;2024-02-16T06:19:22;2.50;;;2.30;;
44456;SDS011;30159;49.316;8.558;2024-02-16T06:21:50;2.80;;;1.80;;
44456;SDS011;30159;49.316;8.558;2024-02-16T06:24:17;2.63;;;2.43;;
44456;SDS011;30159;49.316;8.558;2024-02-16T06:26:44;2.00;;;1.90;;
44456;SDS011;30159;49.316;8.558;2024-02-16T06:29:11;2.30;;;1.90;;
44456;SDS011;30159;49.316;8.558;2024-02-16T06:31:39;2.70;;;2.50;;
44456;SDS011;30159;49.316;8.558;2024-02-16T06:34:05;2.27;;;2.07;;
44456;SDS011;30159;49.316;8.558;2024-02-16T06:36:33;2.20;;;2.00;;
44456;SDS011;30159;49.316;8.558;2024-02-16T06:39:01;1.53;;;1.40;;
44456;SDS011;30159;49.316;8.558;2024-02-16T06:41:29;2.50;;;2.30;;
44456;SDS011;30159;49.316;8.558;2024-02-16T06:43:55;3.97;;;2.10;;
44456;SDS011;30159;49.316;8.558;2024-02-16T06:46:22;3.30;;;2.10;;
44456;SDS011;30159;49.316;8.558;2024-02-16T06:48:49;3.43;;;2.20;;
44456;SDS011;30159;49.316;8.558;2024-02-16T06:51:17;2.37;;;2.17;;
44456;SDS011;30159;49.316;8.558;2024-02-16T06:53:43;3.13;;;2.83;;
44456;SDS011;30159;49.316;8.558;2024-02-16T06:56:12;2.53;;;2.37;;
44456;SDS011;30159;49.316;8.558;2024-02-16T06:58:38;4.50;;;2.67;;
44456;SDS011;30159;49.316;8.558;2024-02-16T07:01:05;3.70;;;2.63;;
44456;SDS011;30159;49.316;8.558;2024-02-16T07:03:32;5.90;;;2.87;;
44456;SDS011;30159;49.316;8.558;2024-02-16T07:06:01;2.10;;;2.00;;
44456;SDS011;30159;49.316;8.558;2024-02-16T07:08:29;3.10;;;2.67;;
44456;SDS011;30159;49.316;8.558;2024-02-16T07:10:56;2.67;;;2.47;;
44456;SDS011;30159;49.316;8.558;2024-02-16T07:13:24;2.80;;;2.50;;
44456;SDS011;30159;49.316;8.558;2024-02-16T07:15:51;2.90;;;2.70;;
44456;SDS011;30159;49.316;8.558;2024-02-16T07:18:17;2.80;;;2.50;;
44456;SDS011;30159;49.316;8.558;2024-02-16T07:20:44;3.97;;;2.27;;
44456;SDS011;30159;49.316;8.558;2024-02-16T07:23:11;2.60;;;2.40;;
44456;SDS011;30159;49.316;8.558;2024-02-16T07:25:40;3.17;;;2.33;;
44456;SDS011;30159;49.316;8.558;2024-02-16T07:28:09;2.63;;;2.43;;
44456;SDS011;30159;49.316;8.558;2024-02-16T07:30:38;2.37;;;2.17;;
44456;SDS011;30159;49.316;8.558;2024-02-16T07:33:06;4.07;;;3.00;;
44456;SDS011;30159;49.316;8.558;2024-02-16T07:35:34;2.50;;;1.80;;
44456;SDS011;30159;49.316;8.558;2024-02-16T07:38:04;3.00;;;2.70;;
44456;SDS011;30159;49.316;8.558;2024-02-16T07:40:33;2.23;;;2.00;;
44456;SDS011;30159;49.316;8.558;2024-02-16T07:43:00;2.03;;;1.93;;
44456;SDS011;30159;49.316;8.558;2024-02-16T07:45:28;1.90;;;1.80;;
44456;SDS011;30159;49.316;8.558;2024-02-16T07:47:58;2.60;;;2.40;;
44456;SDS011;30159;49.316;8.558;2024-02-16T07:50:30;2.50;;;2.23;;
44456;SDS011;30159;49.316;8.558;2024-02-16T07:52:57;2.87;;;2.23;;
44456;SDS011;30159;49.316;8.558;2024-02-16T07:55:27;2.57;;;2.37;;
44456;SDS011;30159;49.316;8.558;2024-02-16T07:58:11;2.87;;;2.67;;
44456;SDS011;30159;49.316;8.558;2024-02-16T08:00:38;2.83;;;2.63;;
44456;SDS011;30159;49.316;8.558;2024-02-16T08:03:10;2.70;;;2.50;;
44456;SDS011;30159;49.316;8.558;2024-02-16T08:05:36;4.50;;;2.37;;
44456;SDS011;30159;49.316;8.558;2024-02-16T08:08:03;3.20;;;2.67;;
44456;SDS011;30159;49.316;8.558;2024-02-16T08:10:30;2.70;;;2.50;;
44456;SDS011;30159;49.316;8.558;2024-02-16T08:12:57;3.47;;;3.17;;
44456;SDS011;30159;49.316;8.558;2024-02-16T08:15:24;3.17;;;2.97;;
44456;SDS011;30159;49.316;8.558;2024-02-16T08:17:51;4.30;;;2.90;;
44456;SDS011;30159;49.316;8.558;2024-02-16T08:20:20;2.80;;;2.60;;
44456;SDS011;30159;49.316;8.558;2024-02-16T08:22:47;3.30;;;2.90;;
44456;SDS011;30159;49.316;8.558;2024-02-16T08:25:13;3.03;;;2.73;;
44456;SDS011;30159;49.316;8.558;2024-02-16T08:27:40;3.10;;;2.90;;
44456;SDS011;30159;49.316;8.558;2024-02-16T08:30:07;5.17;;;3.80;;
44456;SDS011;30159;49.316;8.558;2024-02-16T08:32:35;6.63;;;3.60;;
44456;SDS011;30159;49.316;8.558;2024-02-16T08:35:01;3.43;;;3.13;;
44456;SDS011;30159;49.316;8.558;2024-02-16T08:37:29;5.13;;;3.80;;
44456;SDS011;30159;49.316;8.558;2024-02-16T08:39:56;3.30;;;3.00;;
44456;SDS011;30159;49.316;8.558;2024-02-16T08:42:23;3.83;;;3.50;;
44456;SDS011;30159;49.316;8.558;2024-02-16T08:44:49;3.47;;;3.17;;
44456;SDS011;30159;49.316;8.558;2024-02-16T08:47:16;4.20;;;2.60;;
44456;SDS011;30159;49.316;8.558;2024-02-16T08:49:43;3.83;;;3.50;;
44456;SDS011;30159;49.316;8.558;2024-02-16T08:52:10;4.57;;;4.20;;
44456;SDS011;30159;49.316;8.558;2024-02-16T08:54:38;4.30;;;2.90;;
44456;SDS011;30159;49.316;8.558;2024-02-16T08:57:04;4.40;;;2.60;;
44456;SDS011;30159;49.316;8.558;2024-02-16T08:59:31;2.90;;;2.70;;
44456;SDS011;30159;49.316;8.558;2024-02-16T09:01:59;3.27;;;3.00;;
44456;SDS011;30159;49.316;8.558;2024-02-16T09:04:26;3.07;;;2.87;;
44456;SDS011;30159;49.316;8.558;2024-02-16T09:06:52;3.00;;;2.57;;
44456;SDS011;30159;49.316;8.558;2024-02-16T09:09:19;2.97;;;2.43;;
44456;SDS011;30159;49.316;8.558;2024-02-16T09:11:47;2.37;;;2.17;;
44456;SDS011;30159;49.316;8.558;2024-02-16T09:14:13;4.00;;;2.77;;
44456;SDS011;30159;49.316;8.558;2024-02-16T09:16:40;2.53;;;2.33;;
44456;SDS011;30159;49.316;8.558;2024-02-16T09:19:07;2.97;;;2.77;;
44456;SDS011;30159;49.316;8.558;2024-02-16T09:21:33;2.00;;;1.90;;
44456;SDS011;30159;49.316;8.558;2024-02-16T09:24:00;3.00;;;2.63;;
44456;SDS011;30159;49.316;8.558;2024-02-16T09:26:28;6.77;;;2.50;;
44456;SDS011;30159;49.316;8.558;2024-02-16T09:28:58;3.70;;;2.30;;
44456;SDS011;30159;49.316;8.558;2024-02-16T09:31:24;4.43;;;2.47;;
44456;SDS011;30159;49.316;8.558;2024-02-16T09:33:52;2.93;;;2.13;;
44456;SDS011;30159;49.316;8.558;2024-02-16T09:36:18;3.47;;;2.13;;
44456;SDS011;30159;49.316;8.558;2024-02-16T09:38:45;2.87;;;2.23;;
44456;SDS011;30159;49.316;8.558;2024-02-16T09:41:12;2.50;;;2.30;;
44456;SDS011;30159;49.316;8.558;2024-02-16T09:43:41;2.53;;;2.33;;
44456;SDS011;30159;49.316;8.558;2024-02-16T09:46:09;2.90;;;2.70;;
44456;SDS011;30159;49.316;8.558;2024-02-16T09:48:35;3.70;;;2.50;;
44456;SDS011;30159;49.316;8.558;2024-02-16T09:51:04;2.50;;;2.30;;
44456;SDS011;30159;49.316;8.558;2024-02-16T09:53:31;2.90;;;2.47;;
44456;SDS011;30159;49.316;8.558;2024-02-16T09:55:57;7.70;;;2.47;;
44456;SDS011;30159;49.316;8.558;2024-02-16T09:58:24;2.93;;;2.60;;
44456;SDS011;30159;49.316;8.558;2024-02-16T10:00:51;3.20;;;2.27;;
44456;SDS011;30159;49.316;8.558;2024-02-16T10:03:24;2.93;;;2.50;;
44456;SDS011;30159;49.316;8.558;2024-02-16T10:05:52;2.50;;;2.30;;
44456;SDS011;30159;49.316;8.558;2024-02-16T10:08:19;2.40;;;2.20;;
44456;SDS011;30159;49.316;8.558;2024-02-16T10:10:45;2.17;;;2.07;;
44456;SDS011;30159;49.316;8.558;2024-02-16T10:13:15;2.37;;;2.17;;
44456;SDS011;30159;49.316;8.558;2024-02-16T10:15:41;2.27;;;2.07;;
44456;SDS011;30159;49.316;8.558;2024-02-16T10:18:08;3.40;;;1.90;;
44456;SDS011;30159;49.316;8.558;2024-02-16T10:20:36;1.93;;;1.70;;
44456;SDS011;30159;49.316;8.558;2024-02-16T10:23:05;1.93;;;1.73;;
44456;SDS011;30159;49.316;8.558;2024-02-16T10:25:32;2.00;;;1.87;;
44456;SDS011;30159;49.316;8.558;2024-02-16T10:27:59;1.83;;;1.63;;
44456;SDS011;30159;49.316;8.558;2024-02-16T10:30:30;1.70;;;1.60;;
44456;SDS011;30159;49.316;8.558;2024-02-16T10:33:01;4.10;;;1.80;;
44456;SDS011;30159;49.316;8.558;2024-02-16T10:35:28;1.70;;;1.60;;
44456;SDS011;30159;49.316;8.558;2024-02-16T10:37:57;1.80;;;1.70;;
44456;SDS011;30159;49.316;8.558;2024-02-16T10:40:27;2.43;;;2.23;;
44456;SDS011;30159;49.316;8.558;2024-02-16T10:42:54;1.90;;;1.60;;
44456;SDS011;30159;49.316;8.558;2024-02-16T10:45:21;1.90;;;1.80;;
44456;SDS011;30159;49.316;8.558;2024-02-16T10:47:48;2.10;;;1.90;;
44456;SDS011;30159;49.316;8.558;2024-02-16T10:50:15;4.00;;;1.80;;
44456;SDS011;30159;49.316;8.558;2024-02-16T10:52:42;1.80;;;1.67;;
44456;SDS011;30159;49.316;8.558;2024-02-16T10:55:14;2.53;;;2.33;;
44456;SDS011;30159;49.316;8.558;2024-02-16T10:57:42;2.10;;;1.90;;
44456;SDS011;30159;49.316;8.558;2024-02-16T11:00:09;2.20;;;2.00;;
44456;SDS011;30159;49.316;8.558;2024-02-16T11:02:54;2.83;;;1.90;;
44456;SDS011;30159;49.316;8.558;2024-02-16T11:05:33;2.97;;;2.17;;
44456;SDS011;30159;49.316;8.558;2024-02-16T11:08:01;2.20;;;2.00;;
44456;SDS011;30159;49.316;8.558;2024-02-16T11:10:30;4.20;;;1.80;;
44456;SDS011;30159;49.316;8.558;2024-02-16T11:13:00;3.50;;;1.90;;
44456;SDS011;30159;49.316;8.558;2024-02-16T11:15:30;4.27;;;1.70;;
44456;SDS011;30159;49.316;8.558;2024-02-16T11:17:57;1.80;;;1.70;;
44456;SDS011;30159;49.316;8.558;2024-02-16T11:20:25;2.10;;;1.70;;
44456;SDS011;30159;49.316;8.558;2024-02-16T11:22:52;1.70;;;1.60;;
44456;SDS011;30159;49.316;8.558;2024-02-16T11:25:19;1.60;;;1.40;;
44456;SDS011;30159;49.316;8.558;2024-02-16T11:27:58;2.10;;;1.60;;
44456;SDS011;30159;49.316;8.558;2024-02-16T11:30:24;1.70;;;1.60;;
44456;SDS011;30159;49.316;8.558;2024-02-16T11:32:51;2.10;;;1.97;;
44456;SDS011;30159;49.316;8.558;2024-02-16T11:35:18;1.60;;;1.50;;
44456;SDS011;30159;49.316;8.558;2024-02-16T11:37:45;1.80;;;1.50;;
44456;SDS011;30159;49.316;8.558;2024-02-16T11:40:12;1.43;;;1.33;;
44456;SDS011;30159;49.316;8.558;2024-02-16T11:42:40;1.90;;;1.70;;
44456;SDS011;30159;49.316;8.558;2024-02-16T11:45:10;3.87;;;1.80;;
44456;SDS011;30159;49.316;8.558;2024-02-16T11:47:38;2.00;;;1.70;;
44456;SDS011;30159;49.316;8.558;2024-02-16T11:50:05;4.80;;;1.83;;
44456;SDS011;30159;49.316;8.558;2024-02-16T11:52:36;2.13;;;1.50;;
44456;SDS011;30159;49.316;8.558;2024-02-16T11:55:02;1.50;;;1.40;;
44456;SDS011;30159;49.316;8.558;2024-02-16T11:57:30;2.10;;;1.50;;
44456;SDS011;30159;49.316;8.558;2024-02-16T11:59:58;1.60;;;1.50;;
44456;SDS011;30159;49.316;8.558;2024-02-16T12:02:29;1.70;;;1.50;;
44456;SDS011;30159;49.316;8.558;2024-02-16T12:04:58;1.70;;;1.60;;
44456;SDS011;30159;49.316;8.558;2024-02-16T12:07:25;2.30;;;1.97;;
44456;SDS011;30159;49.316;8.558;2024-02-16T12:09:56;1.73;;;1.50;;
44456;SDS011;30159;49.316;8.558;2024-02-16T12:12:23;1.83;;;1.47;;
44456;SDS011;30159;49.316;8.558;2024-02-16T12:14:50;6.97;;;1.23;;
44456;SDS011;30159;49.316;8.558;2024-02-16T12:17:18;2.13;;;1.27;;
44456;SDS011;30159;49.316;8.558;2024-02-16T12:19:45;1.23;;;1.10;;
44456;SDS011;30159;49.316;8.558;2024-02-16T12:22:16;1.70;;;1.60;;
44456;SDS011;30159;49.316;8.558;2024-02-16T12:24:44;1.50;;;1.30;;
44456;SDS011;30159;49.316;8.558;2024-02-16T12:27:10;1.60;;;1.40;;
44456;SDS011;30159;49.316;8.558;2024-02-16T12:29:37;15.87;;;2.00;;
44456;SDS011;30159;49.316;8.558;2024-02-16T12:32:05;2.80;;;1.33;;
44456;SDS011;30159;49.316;8.558;2024-02-16T12:34:36;1.80;;;1.70;;
44456;SDS011;30159;49.316;8.558;2024-02-16T12:37:04;1.40;;;1.10;;
44456;SDS011;30159;49.316;8.558;2024-02-16T12:39:32;1.30;;;1.13;;
44456;SDS011;30159;49.316;8.558;2024-02-16T12:41:59;3.33;;;1.30;;
44456;SDS011;30159;49.316;8.558;2024-02-16T12:44:26;1.93;;;1.20;;
44456;SDS011;30159;49.316;8.558;2024-02-16T12:46:53;3.17;;;1.40;;
44456;SDS011;30159;49.316;8.558;2024-02-16T12:49:19;1.30;;;1.20;;
44456;SDS011;30159;49.316;8.558;2024-02-16T12:51:48;1.30;;;1.20;;
44456;SDS011;30159;49.316;8.558;2024-02-16T12:54:15;1.33;;;1.23;;
44456;SDS011;30159;49.316;8.558;2024-02-16T12:56:44;1.43;;;1.30;;
44456;SDS011;30159;49.316;8.558;2024-02-16T12:59:10;1.60;;;1.50;;
44456;SDS011;30159;49.316;8.558;2024-02-16T13:01:37;1.50;;;1.40;;
44456;SDS011;30159;49.316;8.558;2024-02-16T13:04:04;1.20;;;1.10;;
44456;SDS011;30159;49.316;8.558;2024-02-16T13:06:31;1.73;;;1.50;;
44456;SDS011;30159;49.316;8.558;2024-02-16T13:08:59;1.93;;;1.33;;
44456;SDS011;30159;49.316;8.558;2024-02-16T13:11:27;1.70;;;1.50;;
44456;SDS011;30159;49.316;8.558;2024-02-16T13:13:54;1.50;;;1.17;;
44456;SDS011;30159;49.316;8.558;2024-02-16T13:16:20;2.23;;;1.57;;
44456;SDS011;30159;49.316;8.558;2024-02-16T13:18:47;2.30;;;1.50;;
44456;SDS011;30159;49.316;8.558;2024-02-16T13:21:14;2.33;;;1.40;;
44456;SDS011;30159;49.316;8.558;2024-02-16T13:23:40;2.07;;;1.20;;
44456;SDS011;30159;49.316;8.558;2024-02-16T13:26:08;1.40;;;1.20;;
44456;SDS011;30159;49.316;8.558;2024-02-16T13:28:35;3.77;;;1.30;;
44456;SDS011;30159;49.316;8.558;2024-02-16T13:31:01;1.60;;;1.33;;
44456;SDS011;30159;49.316;8.558;2024-02-16T13:33:28;3.43;;;2.03;;
44456;SDS011;30159;49.316;8.558;2024-02-16T13:35:55;2.13;;;1.20;;
44456;SDS011;30159;49.316;8.558;2024-02-16T13:38:21;1.43;;;1.23;;
44456;SDS011;30159;49.316;8.558;2024-02-16T13:40:48;5.03;;;1.17;;
44456;SDS011;30159;49.316;8.558;2024-02-16T13:43:16;2.03;;;1.10;;
44456;SDS011;30159;49.316;8.558;2024-02-16T13:45:47;3.03;;;1.17;;
44456;SDS011;30159;49.316;8.558;2024-02-16T13:48:16;1.50;;;1.20;;
44456;SDS011;30159;49.316;8.558;2024-02-16T13:50:43;1.27;;;1.00;;
44456;SDS011;30159;49.316;8.558;2024-02-16T13:53:11;1.10;;;1.00;;
44456;SDS011;30159;49.316;8.558;2024-02-16T13:55:37;2.43;;;1.20;;
44456;SDS011;30159;49.316;8.558;2024-02-16T13:58:04;3.20;;;1.10;;
44456;SDS011;30159;49.316;8.558;2024-02-16T14:00:32;2.40;;;1.00;;
44456;SDS011;30159;49.316;8.558;2024-02-16T14:02:59;2.13;;;1.20;;
44456;SDS011;30159;49.316;8.558;2024-02-16T14:05:25;1.10;;;1.00;;
44456;SDS011;30159;49.316;8.558;2024-02-16T14:07:52;1.10;;;1.00;;
44456;SDS011;30159;49.316;8.558;2024-02-16T14:10:19;1.10;;;0.90;;
44456;SDS011;30159;49.316;8.558;2024-02-16T14:12:46;1.23;;;0.93;;
44456;SDS011;30159;49.316;8.558;2024-02-16T14:15:13;2.83;;;0.97;;
44456;SDS011;30159;49.316;8.558;2024-02-16T14:17:42;1.23;;;1.13;;
44456;SDS011;30159;49.316;8.558;2024-02-16T14:20:09;1.20;;;1.10;;
44456;SDS011;30159;49.316;8.558;2024-02-16T14:22:36;1.20;;;1.10;;
44456;SDS011;30159;49.316;8.558;2024-02-16T14:25:03;2.17;;;1.43;;
44456;SDS011;30159;49.316;8.558;2024-02-16T14:27:30;1.00;;;0.90;;
44456;SDS011;30159;49.316;8.558;2024-02-16T14:29:57;0.90;;;0.80;;
44456;SDS011;30159;49.316;8.558;2024-02-16T14:32:24;1.93;;;1.10;;
44456;SDS011;30159;49.316;8.558;2024-02-16T14:34:52;1.10;;;0.77;;
44456;SDS011;30159;49.316;8.558;2024-02-16T14:37:19;2.20;;;1.00;;
44456;SDS011;30159;49.316;8.558;2024-02-16T14:39:45;1.90;;;1.20;;
44456;SDS011;30159;49.316;8.558;2024-02-16T14:42:12;1.30;;;1.20;;
44456;SDS011;30159;49.316;8.558;2024-02-16T14:44:39;1.73;;;1.10;;
44456;SDS011;30159;49.316;8.558;2024-02-16T14:47:06;2.20;;;1.23;;
44456;SDS011;30159;49.316;8.558;2024-02-16T14:49:33;1.90;;;1.10;;